Terminal Aerodrome Forecast
Issued by NWS

Home | Current Version | Previous Version | Text Only | Print | Product List | Glossary On
Versions: 1 2 3 4 5 6 7 8 9 10 11 12 13 14 15 16 17
202
FTUS46 KSEW 030535
TAFHQM
TAF
KHQM 030535Z 0306/0406 27006KT P6SM VCSH SCT026 BKN035 BKN045
     FM030900 26008KT 6SM BR SCT025 BKN050
     FM031600 20008KT 6SM BR SCT025 OVC050
     FM032200 20010KT 4SM -RA BR OVC025=

USA.gov is the U.S. government's official web portal to all federal, state and local government web resources and services.